sensor_id;sensor_type;location;lat;lon;timestamp;pressure;altitude;pressure_sealevel;temperature;humidity
79709;BME280;69203;48.964;9.118;2023-10-19T00:00:29;97490.78;;;10.69;100.00
79709;BME280;69203;48.964;9.118;2023-10-19T00:01:33;97490.25;;;10.65;100.00
79709;BME280;69203;48.964;9.118;2023-10-19T00:02:34;97491.09;;;10.66;100.00
79709;BME280;69203;48.964;9.118;2023-10-19T00:03:37;97488.47;;;10.66;100.00
79709;BME280;69203;48.964;9.118;2023-10-19T00:04:37;97481.84;;;10.62;100.00
79709;BME280;69203;48.964;9.118;2023-10-19T00:05:40;97482.38;;;10.55;100.00
79709;BME280;69203;48.964;9.118;2023-10-19T00:06:41;97481.66;;;10.53;100.00
79709;BME280;69203;48.964;9.118;2023-10-19T00:07:44;97477.81;;;10.57;100.00
79709;BME280;69203;48.964;9.118;2023-10-19T00:08:46;97478.38;;;10.61;100.00
79709;BME280;69203;48.964;9.118;2023-10-19T00:09:46;97475.19;;;10.57;100.00
79709;BME280;69203;48.964;9.118;2023-10-19T00:10:52;97477.00;;;10.57;100.00
79709;BME280;69203;48.964;9.118;2023-10-19T00:12:03;97480.44;;;10.57;100.00
79709;BME280;69203;48.964;9.118;2023-10-19T00:13:05;97476.41;;;10.53;100.00
79709;BME280;69203;48.964;9.118;2023-10-19T00:14:06;97475.47;;;10.54;100.00
79709;BME280;69203;48.964;9.118;2023-10-19T00:15:15;97479.75;;;10.55;100.00
79709;BME280;69203;48.964;9.118;2023-10-19T00:16:22;97472.44;;;10.59;100.00
79709;BME280;69203;48.964;9.118;2023-10-19T00:17:24;97471.88;;;10.55;100.00
79709;BME280;69203;48.964;9.118;2023-10-19T00:18:27;97464.56;;;10.49;100.00
79709;BME280;69203;48.964;9.118;2023-10-19T00:19:27;97471.06;;;10.55;100.00
79709;BME280;69203;48.964;9.118;2023-10-19T00:20:31;97465.09;;;10.53;100.00
79709;BME280;69203;48.964;9.118;2023-10-19T00:21:50;97469.66;;;10.51;100.00
79709;BME280;69203;48.964;9.118;2023-10-19T00:22:50;97470.50;;;10.51;100.00
79709;BME280;69203;48.964;9.118;2023-10-19T00:23:56;97470.75;;;10.48;100.00
79709;BME280;69203;48.964;9.118;2023-10-19T00:24:57;97468.13;;;10.48;100.00
79709;BME280;69203;48.964;9.118;2023-10-19T00:25:59;97470.63;;;10.50;100.00
79709;BME280;69203;48.964;9.118;2023-10-19T00:26:59;97467.88;;;10.51;100.00
79709;BME280;69203;48.964;9.118;2023-10-19T00:28:06;97471.72;;;10.47;100.00
79709;BME280;69203;48.964;9.118;2023-10-19T00:29:06;97471.88;;;10.55;100.00
79709;BME280;69203;48.964;9.118;2023-10-19T00:30:26;97475.59;;;10.53;100.00
79709;BME280;69203;48.964;9.118;2023-10-19T00:31:32;97476.28;;;10.55;100.00
79709;BME280;69203;48.964;9.118;2023-10-19T00:32:36;97485.97;;;10.54;100.00
79709;BME280;69203;48.964;9.118;2023-10-19T00:33:38;97486.78;;;10.55;100.00
79709;BME280;69203;48.964;9.118;2023-10-19T00:34:39;97500.75;;;10.55;100.00
79709;BME280;69203;48.964;9.118;2023-10-19T00:35:39;97496.31;;;10.56;100.00
79709;BME280;69203;48.964;9.118;2023-10-19T00:36:46;97503.09;;;10.58;100.00
79709;BME280;69203;48.964;9.118;2023-10-19T00:37:48;97499.78;;;10.66;100.00
79709;BME280;69203;48.964;9.118;2023-10-19T00:38:48;97505.16;;;10.65;100.00
79709;BME280;69203;48.964;9.118;2023-10-19T00:39:49;97493.72;;;10.66;100.00
79709;BME280;69203;48.964;9.118;2023-10-19T00:40:54;97501.16;;;10.70;100.00
79709;BME280;69203;48.964;9.118;2023-10-19T00:42:06;97502.28;;;10.68;100.00
79709;BME280;69203;48.964;9.118;2023-10-19T00:43:07;97507.94;;;10.73;100.00
79709;BME280;69203;48.964;9.118;2023-10-19T00:44:10;97502.53;;;10.74;100.00
79709;BME280;69203;48.964;9.118;2023-10-19T00:45:11;97490.94;;;10.77;100.00
79709;BME280;69203;48.964;9.118;2023-10-19T00:46:14;97488.03;;;10.80;100.00
79709;BME280;69203;48.964;9.118;2023-10-19T00:47:17;97485.97;;;10.74;100.00
79709;BME280;69203;48.964;9.118;2023-10-19T00:48:20;97483.19;;;10.85;100.00
79709;BME280;69203;48.964;9.118;2023-10-19T00:49:26;97472.56;;;10.96;100.00
79709;BME280;69203;48.964;9.118;2023-10-19T00:50:26;97482.41;;;10.94;100.00
79709;BME280;69203;48.964;9.118;2023-10-19T00:51:35;97478.78;;;11.14;100.00
79709;BME280;69203;48.964;9.118;2023-10-19T00:52:35;97481.13;;;11.08;100.00
79709;BME280;69203;48.964;9.118;2023-10-19T00:53:44;97481.41;;;11.14;100.00
79709;BME280;69203;48.964;9.118;2023-10-19T00:54:44;97484.72;;;11.07;100.00
79709;BME280;69203;48.964;9.118;2023-10-19T00:55:51;97470.88;;;11.24;100.00
79709;BME280;69203;48.964;9.118;2023-10-19T00:56:52;97469.94;;;11.15;100.00
79709;BME280;69203;48.964;9.118;2023-10-19T00:57:55;97465.63;;;11.24;100.00
79709;BME280;69203;48.964;9.118;2023-10-19T00:58:58;97459.03;;;11.10;100.00
79709;BME280;69203;48.964;9.118;2023-10-19T01:00:12;97454.72;;;11.09;100.00
79709;BME280;69203;48.964;9.118;2023-10-19T01:01:13;97457.75;;;11.14;100.00
79709;BME280;69203;48.964;9.118;2023-10-19T01:02:14;97457.47;;;11.17;100.00
79709;BME280;69203;48.964;9.118;2023-10-19T01:03:20;97453.06;;;11.08;100.00
79709;BME280;69203;48.964;9.118;2023-10-19T01:04:20;97459.16;;;11.09;100.00
79709;BME280;69203;48.964;9.118;2023-10-19T01:05:23;97452.94;;;11.10;100.00
79709;BME280;69203;48.964;9.118;2023-10-19T01:06:23;97453.91;;;11.09;100.00
79709;BME280;69203;48.964;9.118;2023-10-19T01:07:24;97447.69;;;11.10;100.00
79709;BME280;69203;48.964;9.118;2023-10-19T01:08:28;97453.34;;;11.15;100.00
79709;BME280;69203;48.964;9.118;2023-10-19T01:09:34;97449.72;;;11.16;100.00
79709;BME280;69203;48.964;9.118;2023-10-19T01:10:35;97457.19;;;11.30;100.00
79709;BME280;69203;48.964;9.118;2023-10-19T01:11:35;97450.00;;;11.22;100.00
79709;BME280;69203;48.964;9.118;2023-10-19T01:12:36;97447.94;;;11.16;100.00
79709;BME280;69203;48.964;9.118;2023-10-19T01:13:40;97438.81;;;11.11;100.00
79709;BME280;69203;48.964;9.118;2023-10-19T01:16:20;97439.91;;;11.18;100.00
79709;BME280;69203;48.964;9.118;2023-10-19T01:17:24;97445.69;;;11.21;100.00
79709;BME280;69203;48.964;9.118;2023-10-19T01:18:27;97442.97;;;11.13;100.00
79709;BME280;69203;48.964;9.118;2023-10-19T01:19:32;97447.09;;;11.16;100.00
79709;BME280;69203;48.964;9.118;2023-10-19T01:20:34;97443.66;;;11.15;100.00
79709;BME280;69203;48.964;9.118;2023-10-19T01:21:48;97440.88;;;11.17;100.00
79709;BME280;69203;48.964;9.118;2023-10-19T01:22:53;97451.28;;;11.09;100.00
79709;BME280;69203;48.964;9.118;2023-10-19T01:23:57;97440.47;;;11.12;100.00
79709;BME280;69203;48.964;9.118;2023-10-19T01:25:02;97441.19;;;11.14;100.00
79709;BME280;69203;48.964;9.118;2023-10-19T01:26:02;97437.59;;;11.15;100.00
79709;BME280;69203;48.964;9.118;2023-10-19T01:27:07;97440.31;;;11.23;100.00
79709;BME280;69203;48.964;9.118;2023-10-19T01:28:10;97438.91;;;11.28;100.00
79709;BME280;69203;48.964;9.118;2023-10-19T01:29:13;97442.94;;;11.23;100.00
79709;BME280;69203;48.964;9.118;2023-10-19T01:30:16;97437.69;;;11.23;100.00
79709;BME280;69203;48.964;9.118;2023-10-19T01:31:18;97431.59;;;11.22;100.00
79709;BME280;69203;48.964;9.118;2023-10-19T01:32:30;97428.84;;;11.24;100.00
79709;BME280;69203;48.964;9.118;2023-10-19T01:33:30;97423.03;;;11.30;100.00
79709;BME280;69203;48.964;9.118;2023-10-19T01:34:31;97419.16;;;11.24;100.00
79709;BME280;69203;48.964;9.118;2023-10-19T01:35:33;97417.06;;;11.28;100.00
79709;BME280;69203;48.964;9.118;2023-10-19T01:36:52;97414.03;;;11.23;100.00
79709;BME280;69203;48.964;9.118;2023-10-19T01:37:54;97411.03;;;11.18;100.00
79709;BME280;69203;48.964;9.118;2023-10-19T01:38:55;97411.56;;;11.21;100.00
79709;BME280;69203;48.964;9.118;2023-10-19T01:39:55;97411.78;;;11.37;100.00
79709;BME280;69203;48.964;9.118;2023-10-19T01:41:00;97406.00;;;11.34;100.00
79709;BME280;69203;48.964;9.118;2023-10-19T01:42:00;97405.47;;;11.30;100.00
79709;BME280;69203;48.964;9.118;2023-10-19T01:43:01;97405.31;;;11.32;100.00
79709;BME280;69203;48.964;9.118;2023-10-19T01:44:02;97399.81;;;11.25;100.00
79709;BME280;69203;48.964;9.118;2023-10-19T01:45:07;97402.88;;;11.21;100.00
79709;BME280;69203;48.964;9.118;2023-10-19T01:46:08;97399.81;;;11.25;100.00
79709;BME280;69203;48.964;9.118;2023-10-19T01:47:21;97400.47;;;11.27;100.00
79709;BME280;69203;48.964;9.118;2023-10-19T01:48:22;97397.72;;;11.29;100.00
79709;BME280;69203;48.964;9.118;2023-10-19T01:49:32;97393.88;;;11.23;100.00
79709;BME280;69203;48.964;9.118;2023-10-19T01:50:32;97392.72;;;11.35;100.00
79709;BME280;69203;48.964;9.118;2023-10-19T01:51:33;97397.28;;;11.33;100.00
79709;BME280;69203;48.964;9.118;2023-10-19T01:52:38;97400.03;;;11.32;100.00
79709;BME280;69203;48.964;9.118;2023-10-19T01:53:38;97382.06;;;11.37;100.00
79709;BME280;69203;48.964;9.118;2023-10-19T01:54:58;97392.16;;;11.32;100.00
79709;BME280;69203;48.964;9.118;2023-10-19T01:56:07;97383.22;;;11.25;100.00
79709;BME280;69203;48.964;9.118;2023-10-19T01:57:09;97390.38;;;11.32;100.00
79709;BME280;69203;48.964;9.118;2023-10-19T01:58:10;97394.00;;;11.31;100.00
79709;BME280;69203;48.964;9.118;2023-10-19T01:59:10;97389.34;;;11.43;100.00
79709;BME280;69203;48.964;9.118;2023-10-19T02:00:11;97382.34;;;11.34;100.00
79709;BME280;69203;48.964;9.118;2023-10-19T02:01:18;97377.22;;;11.32;100.00
79709;BME280;69203;48.964;9.118;2023-10-19T02:02:27;97379.28;;;11.38;100.00
79709;BME280;69203;48.964;9.118;2023-10-19T02:03:28;97385.84;;;11.25;100.00
79709;BME280;69203;48.964;9.118;2023-10-19T02:04:29;97378.09;;;11.23;100.00
79709;BME280;69203;48.964;9.118;2023-10-19T02:05:29;97388.19;;;11.28;100.00
79709;BME280;69203;48.964;9.118;2023-10-19T02:06:39;97381.91;;;11.38;100.00
79709;BME280;69203;48.964;9.118;2023-10-19T02:07:46;97372.97;;;11.31;100.00
79709;BME280;69203;48.964;9.118;2023-10-19T02:08:49;97381.38;;;11.35;100.00
79709;BME280;69203;48.964;9.118;2023-10-19T02:09:51;97373.78;;;11.32;100.00
79709;BME280;69203;48.964;9.118;2023-10-19T02:10:51;97383.88;;;11.27;100.00
79709;BME280;69203;48.964;9.118;2023-10-19T02:11:52;97381.53;;;11.33;100.00
79709;BME280;69203;48.964;9.118;2023-10-19T02:12:54;97377.78;;;11.36;100.00
79709;BME280;69203;48.964;9.118;2023-10-19T02:13:55;97382.34;;;11.34;100.00
79709;BME280;69203;48.964;9.118;2023-10-19T02:14:59;97381.44;;;11.53;100.00
79709;BME280;69203;48.964;9.118;2023-10-19T02:16:00;97379.06;;;11.59;100.00
79709;BME280;69203;48.964;9.118;2023-10-19T02:17:00;97373.47;;;11.44;100.00
79709;BME280;69203;48.964;9.118;2023-10-19T02:18:02;97376.34;;;11.51;100.00
79709;BME280;69203;48.964;9.118;2023-10-19T02:19:03;97374.38;;;11.53;100.00
79709;BME280;69203;48.964;9.118;2023-10-19T02:20:03;97379.09;;;11.50;100.00
79709;BME280;69203;48.964;9.118;2023-10-19T02:21:13;97364.50;;;11.37;100.00
79709;BME280;69203;48.964;9.118;2023-10-19T02:22:14;97374.44;;;11.43;100.00
79709;BME280;69203;48.964;9.118;2023-10-19T02:23:14;97378.72;;;11.44;100.00
79709;BME280;69203;48.964;9.118;2023-10-19T02:24:15;97366.22;;;11.56;100.00
79709;BME280;69203;48.964;9.118;2023-10-19T02:25:15;97369.38;;;11.60;100.00
79709;BME280;69203;48.964;9.118;2023-10-19T02:26:17;97359.34;;;11.46;100.00
79709;BME280;69203;48.964;9.118;2023-10-19T02:27:19;97356.63;;;11.65;100.00
79709;BME280;69203;48.964;9.118;2023-10-19T02:28:22;97350.69;;;11.63;100.00
79709;BME280;69203;48.964;9.118;2023-10-19T02:29:29;97347.56;;;11.50;100.00
79709;BME280;69203;48.964;9.118;2023-10-19T02:30:31;97353.59;;;11.60;100.00
79709;BME280;69203;48.964;9.118;2023-10-19T02:31:31;97345.44;;;11.63;100.00
79709;BME280;69203;48.964;9.118;2023-10-19T02:32:31;97348.28;;;11.69;100.00
79709;BME280;69203;48.964;9.118;2023-10-19T02:33:33;97350.78;;;11.71;100.00
79709;BME280;69203;48.964;9.118;2023-10-19T02:34:33;97348.06;;;11.63;100.00
79709;BME280;69203;48.964;9.118;2023-10-19T02:35:34;97346.09;;;11.65;100.00
79709;BME280;69203;48.964;9.118;2023-10-19T02:36:37;97342.13;;;11.61;100.00
79709;BME280;69203;48.964;9.118;2023-10-19T02:37:38;97350.06;;;11.51;100.00
79709;BME280;69203;48.964;9.118;2023-10-19T02:38:39;97345.09;;;11.48;100.00
79709;BME280;69203;48.964;9.118;2023-10-19T02:39:39;97344.88;;;11.59;100.00
79709;BME280;69203;48.964;9.118;2023-10-19T02:40:40;97344.88;;;11.59;100.00
79709;BME280;69203;48.964;9.118;2023-10-19T02:41:41;97346.53;;;11.60;100.00
79709;BME280;69203;48.964;9.118;2023-10-19T02:42:42;97347.47;;;11.69;100.00
79709;BME280;69203;48.964;9.118;2023-10-19T02:43:46;97339.19;;;11.73;100.00
79709;BME280;69203;48.964;9.118;2023-10-19T02:44:51;97347.47;;;11.78;100.00
79709;BME280;69203;48.964;9.118;2023-10-19T02:45:51;97343.69;;;11.81;100.00
79709;BME280;69203;48.964;9.118;2023-10-19T02:46:52;97345.53;;;11.71;100.00
79709;BME280;69203;48.964;9.118;2023-10-19T02:47:55;97344.56;;;11.72;100.00
79709;BME280;69203;48.964;9.118;2023-10-19T02:48:56;97345.44;;;11.63;100.00
79709;BME280;69203;48.964;9.118;2023-10-19T02:49:56;97344.63;;;11.62;100.00
79709;BME280;69203;48.964;9.118;2023-10-19T02:50:57;97339.09;;;11.56;100.00
79709;BME280;69203;48.964;9.118;2023-10-19T02:52:06;97342.75;;;11.72;100.00
79709;BME280;69203;48.964;9.118;2023-10-19T02:53:06;97342.81;;;11.63;100.00
79709;BME280;69203;48.964;9.118;2023-10-19T02:54:07;97339.19;;;11.64;100.00
79709;BME280;69203;48.964;9.118;2023-10-19T02:55:07;97337.97;;;11.58;100.00
79709;BME280;69203;48.964;9.118;2023-10-19T02:56:11;97338.66;;;11.60;100.00
79709;BME280;69203;48.964;9.118;2023-10-19T02:57:12;97332.66;;;11.77;100.00
79709;BME280;69203;48.964;9.118;2023-10-19T02:58:13;97326.88;;;11.92;100.00
79709;BME280;69203;48.964;9.118;2023-10-19T02:59:13;97318.84;;;11.93;100.00
79709;BME280;69203;48.964;9.118;2023-10-19T03:00:16;97324.63;;;11.79;100.00
79709;BME280;69203;48.964;9.118;2023-10-19T03:01:21;97315.28;;;11.84;100.00
79709;BME280;69203;48.964;9.118;2023-10-19T03:02:23;97315.75;;;11.80;100.00
79709;BME280;69203;48.964;9.118;2023-10-19T03:03:25;97320.84;;;11.81;100.00
79709;BME280;69203;48.964;9.118;2023-10-19T03:04:26;97319.50;;;11.77;100.00
79709;BME280;69203;48.964;9.118;2023-10-19T03:05:28;97318.69;;;11.77;100.00
79709;BME280;69203;48.964;9.118;2023-10-19T03:06:29;97311.41;;;11.89;100.00
79709;BME280;69203;48.964;9.118;2023-10-19T03:07:33;97309.88;;;11.86;100.00
79709;BME280;69203;48.964;9.118;2023-10-19T03:08:33;97319.75;;;11.84;100.00
79709;BME280;69203;48.964;9.118;2023-10-19T03:09:35;97326.44;;;11.78;100.00
79709;BME280;69203;48.964;9.118;2023-10-19T03:10:38;97321.59;;;11.74;100.00
79709;BME280;69203;48.964;9.118;2023-10-19T03:11:46;97317.91;;;11.84;100.00
79709;BME280;69203;48.964;9.118;2023-10-19T03:12:48;97315.00;;;11.88;100.00
79709;BME280;69203;48.964;9.118;2023-10-19T03:13:49;97316.44;;;11.82;100.00
79709;BME280;69203;48.964;9.118;2023-10-19T03:14:50;97309.44;;;11.73;100.00
79709;BME280;69203;48.964;9.118;2023-10-19T03:15:50;97316.53;;;11.63;100.00
79709;BME280;69203;48.964;9.118;2023-10-19T03:16:53;97316.66;;;11.61;100.00
79709;BME280;69203;48.964;9.118;2023-10-19T03:17:56;97316.75;;;11.69;100.00
79709;BME280;69203;48.964;9.118;2023-10-19T03:18:57;97314.63;;;11.82;100.00
79709;BME280;69203;48.964;9.118;2023-10-19T03:19:57;97301.47;;;11.82;100.00
79709;BME280;69203;48.964;9.118;2023-10-19T03:20:59;97303.88;;;11.76;100.00
79709;BME280;69203;48.964;9.118;2023-10-19T03:22:00;97305.00;;;11.64;100.00
79709;BME280;69203;48.964;9.118;2023-10-19T03:23:00;97300.41;;;11.75;100.00
79709;BME280;69203;48.964;9.118;2023-10-19T03:24:02;97299.00;;;11.81;100.00
79709;BME280;69203;48.964;9.118;2023-10-19T03:25:06;97299.97;;;11.80;100.00
79709;BME280;69203;48.964;9.118;2023-10-19T03:26:27;97303.97;;;11.57;100.00
79709;BME280;69203;48.964;9.118;2023-10-19T03:27:30;97300.56;;;11.47;100.00
79709;BME280;69203;48.964;9.118;2023-10-19T03:28:31;97305.53;;;11.50;100.00
79709;BME280;69203;48.964;9.118;2023-10-19T03:29:35;97302.50;;;11.44;100.00
79709;BME280;69203;48.964;9.118;2023-10-19T03:30:38;97304.41;;;11.52;100.00
79709;BME280;69203;48.964;9.118;2023-10-19T03:31:39;97308.47;;;11.47;100.00
79709;BME280;69203;48.964;9.118;2023-10-19T03:32:43;97303.47;;;11.43;100.00
79709;BME280;69203;48.964;9.118;2023-10-19T03:33:44;97305.00;;;11.46;100.00
79709;BME280;69203;48.964;9.118;2023-10-19T03:34:44;97301.81;;;11.42;100.00
79709;BME280;69203;48.964;9.118;2023-10-19T03:35:47;97305.47;;;11.59;100.00
79709;BME280;69203;48.964;9.118;2023-10-19T03:36:48;97302.69;;;11.61;100.00
79709;BME280;69203;48.964;9.118;2023-10-19T03:37:48;97303.19;;;11.74;100.00
79709;BME280;69203;48.964;9.118;2023-10-19T03:38:52;97302.69;;;11.61;100.00
79709;BME280;69203;48.964;9.118;2023-10-19T03:39:53;97302.19;;;11.57;100.00
79709;BME280;69203;48.964;9.118;2023-10-19T03:40:56;97299.63;;;11.65;100.00
79709;BME280;69203;48.964;9.118;2023-10-19T03:41:59;97291.03;;;11.73;100.00
79709;BME280;69203;48.964;9.118;2023-10-19T03:43:00;97291.66;;;11.57;100.00
79709;BME280;69203;48.964;9.118;2023-10-19T03:44:06;97291.94;;;11.54;100.00
79709;BME280;69203;48.964;9.118;2023-10-19T03:45:07;97291.94;;;11.54;100.00
79709;BME280;69203;48.964;9.118;2023-10-19T03:46:14;97285.38;;;11.68;100.00
79709;BME280;69203;48.964;9.118;2023-10-19T03:47:30;97280.00;;;11.60;100.00
79709;BME280;69203;48.964;9.118;2023-10-19T03:48:34;97285.28;;;11.60;100.00
79709;BME280;69203;48.964;9.118;2023-10-19T03:49:38;97285.28;;;11.60;100.00
79709;BME280;69203;48.964;9.118;2023-10-19T03:50:41;97282.25;;;11.55;100.00
79709;BME280;69203;48.964;9.118;2023-10-19T03:51:42;97282.78;;;11.58;100.00
79709;BME280;69203;48.964;9.118;2023-10-19T03:53:20;97287.44;;;11.64;100.00
79709;BME280;69203;48.964;9.118;2023-10-19T03:54:21;97284.59;;;11.58;100.00
79709;BME280;69203;48.964;9.118;2023-10-19T03:55:21;97291.28;;;11.70;100.00
79709;BME280;69203;48.964;9.118;2023-10-19T03:56:23;97291.56;;;11.76;100.00
79709;BME280;69203;48.964;9.118;2023-10-19T03:57:24;97291.94;;;11.81;100.00
79709;BME280;69203;48.964;9.118;2023-10-19T03:58:29;97283.91;;;11.83;100.00
79709;BME280;69203;48.964;9.118;2023-10-19T03:59:31;97286.59;;;11.73;100.00
79709;BME280;69203;48.964;9.118;2023-10-19T04:00:33;97290.72;;;11.76;100.00
79709;BME280;69203;48.964;9.118;2023-10-19T04:01:34;97289.63;;;11.78;100.00
79709;BME280;69203;48.964;9.118;2023-10-19T04:02:34;97281.34;;;11.73;100.00
79709;BME280;69203;48.964;9.118;2023-10-19T04:03:38;97285.84;;;11.81;100.00
79709;BME280;69203;48.964;9.118;2023-10-19T04:04:38;97281.56;;;11.80;100.00
79709;BME280;69203;48.964;9.118;2023-10-19T04:05:49;97276.53;;;11.87;100.00
79709;BME280;69203;48.964;9.118;2023-10-19T04:06:52;97265.41;;;11.75;100.00
79709;BME280;69203;48.964;9.118;2023-10-19T04:07:58;97270.44;;;11.68;100.00
79709;BME280;69203;48.964;9.118;2023-10-19T04:08:58;97279.53;;;11.74;100.00
79709;BME280;69203;48.964;9.118;2023-10-19T04:09:59;97274.84;;;11.68;100.00
79709;BME280;69203;48.964;9.118;2023-10-19T04:10:59;97280.78;;;11.70;100.00
79709;BME280;69203;48.964;9.118;2023-10-19T04:12:08;97276.91;;;11.74;100.00
79709;BME280;69203;48.964;9.118;2023-10-19T04:13:11;97283.47;;;11.88;100.00
79709;BME280;69203;48.964;9.118;2023-10-19T04:14:12;97267.91;;;11.76;100.00
79709;BME280;69203;48.964;9.118;2023-10-19T04:15:15;97270.91;;;11.81;100.00
79709;BME280;69203;48.964;9.118;2023-10-19T04:16:15;97268.66;;;11.87;100.00
79709;BME280;69203;48.964;9.118;2023-10-19T04:17:15;97261.94;;;11.74;100.00
79709;BME280;69203;48.964;9.118;2023-10-19T04:18:17;97261.84;;;11.66;100.00
79709;BME280;69203;48.964;9.118;2023-10-19T04:19:17;97262.31;;;11.79;100.00
79709;BME280;69203;48.964;9.118;2023-10-19T04:20:17;97264.81;;;11.81;100.00
79709;BME280;69203;48.964;9.118;2023-10-19T04:21:18;97263.59;;;11.75;100.00
79709;BME280;69203;48.964;9.118;2023-10-19T04:22:18;97253.09;;;11.93;100.00
79709;BME280;69203;48.964;9.118;2023-10-19T04:23:24;97252.78;;;11.96;100.00
79709;BME280;69203;48.964;9.118;2023-10-19T04:24:27;97252.34;;;12.01;100.00
79709;BME280;69203;48.964;9.118;2023-10-19T04:25:27;97258.28;;;12.03;100.00
79709;BME280;69203;48.964;9.118;2023-10-19T04:26:29;97247.84;;;11.93;100.00
79709;BME280;69203;48.964;9.118;2023-10-19T04:27:36;97255.13;;;11.81;100.00
79709;BME280;69203;48.964;9.118;2023-10-19T04:28:37;97253.66;;;11.69;100.00
79709;BME280;69203;48.964;9.118;2023-10-19T04:29:41;97245.81;;;11.87;100.00
79709;BME280;69203;48.964;9.118;2023-10-19T04:30:43;97251.28;;;12.11;100.00
79709;BME280;69203;48.964;9.118;2023-10-19T04:31:43;97247.91;;;12.19;100.00
79709;BME280;69203;48.964;9.118;2023-10-19T04:32:50;97249.00;;;12.34;100.00
79709;BME280;69203;48.964;9.118;2023-10-19T04:33:50;97247.75;;;12.20;100.00
79709;BME280;69203;48.964;9.118;2023-10-19T04:34:52;97248.63;;;12.11;100.00
79709;BME280;69203;48.964;9.118;2023-10-19T04:35:52;97253.47;;;11.98;100.00
79709;BME280;69203;48.964;9.118;2023-10-19T04:36:55;97248.75;;;11.84;100.00
79709;BME280;69203;48.964;9.118;2023-10-19T04:37:59;97244.78;;;11.70;100.00
79709;BME280;69203;48.964;9.118;2023-10-19T04:38:59;97246.91;;;11.67;100.00
79709;BME280;69203;48.964;9.118;2023-10-19T04:40:00;97241.78;;;11.65;100.00
79709;BME280;69203;48.964;9.118;2023-10-19T04:41:09;97246.53;;;11.62;100.00
79709;BME280;69203;48.964;9.118;2023-10-19T04:42:10;97243.06;;;11.61;100.00
79709;BME280;69203;48.964;9.118;2023-10-19T04:43:10;97238.34;;;11.65;100.00
79709;BME280;69203;48.964;9.118;2023-10-19T04:44:10;97237.56;;;11.55;100.00
79709;BME280;69203;48.964;9.118;2023-10-19T04:45:11;97244.66;;;11.72;100.00
79709;BME280;69203;48.964;9.118;2023-10-19T04:46:13;97235.97;;;11.89;100.00
79709;BME280;69203;48.964;9.118;2023-10-19T04:47:13;97239.81;;;11.95;100.00
79709;BME280;69203;48.964;9.118;2023-10-19T04:48:13;97232.06;;;11.93;100.00
79709;BME280;69203;48.964;9.118;2023-10-19T04:49:13;97231.22;;;11.75;100.00
79709;BME280;69203;48.964;9.118;2023-10-19T04:50:14;97229.34;;;11.67;100.00
79709;BME280;69203;48.964;9.118;2023-10-19T04:51:14;97227.91;;;11.55;100.00
79709;BME280;69203;48.964;9.118;2023-10-19T04:52:14;97221.75;;;11.47;100.00
79709;BME280;69203;48.964;9.118;2023-10-19T04:53:14;97228.72;;;11.56;100.00
79709;BME280;69203;48.964;9.118;2023-10-19T04:54:16;97228.63;;;11.48;100.00
79709;BME280;69203;48.964;9.118;2023-10-19T04:55:17;97226.00;;;11.48;100.00
79709;BME280;69203;48.964;9.118;2023-10-19T04:56:18;97233.50;;;11.42;100.00
79709;BME280;69203;48.964;9.118;2023-10-19T04:57:18;97231.25;;;11.48;100.00
79709;BME280;69203;48.964;9.118;2023-10-19T04:58:20;97233.47;;;11.52;100.00
79709;BME280;69203;48.964;9.118;2023-10-19T04:59:21;97238.09;;;11.40;100.00
79709;BME280;69203;48.964;9.118;2023-10-19T05:00:22;97231.25;;;11.30;100.00
79709;BME280;69203;48.964;9.118;2023-10-19T05:01:24;97228.50;;;11.22;100.00
79709;BME280;69203;48.964;9.118;2023-10-19T05:02:24;97228.28;;;11.15;100.00
79709;BME280;69203;48.964;9.118;2023-10-19T05:03:27;97229.97;;;11.07;100.00
79709;BME280;69203;48.964;9.118;2023-10-19T05:04:28;97222.09;;;11.07;100.00
79709;BME280;69203;48.964;9.118;2023-10-19T05:05:29;97225.06;;;11.21;100.00
79709;BME280;69203;48.964;9.118;2023-10-19T05:06:29;97225.16;;;11.29;100.00
79709;BME280;69203;48.964;9.118;2023-10-19T05:07:30;97222.47;;;11.39;100.00
79709;BME280;69203;48.964;9.118;2023-10-19T05:08:30;97227.53;;;11.50;100.00
79709;BME280;69203;48.964;9.118;2023-10-19T05:09:32;97228.03;;;11.36;100.00
79709;BME280;69203;48.964;9.118;2023-10-19T05:10:33;97219.00;;;11.21;100.00
79709;BME280;69203;48.964;9.118;2023-10-19T05:11:33;97222.28;;;11.23;100.00
79709;BME280;69203;48.964;9.118;2023-10-19T05:12:33;97218.00;;;11.22;100.00
79709;BME280;69203;48.964;9.118;2023-10-19T05:13:34;97214.59;;;11.12;100.00
79709;BME280;69203;48.964;9.118;2023-10-19T05:14:35;97219.19;;;11.10;100.00
79709;BME280;69203;48.964;9.118;2023-10-19T05:15:38;97220.41;;;11.15;100.00
79709;BME280;69203;48.964;9.118;2023-10-19T05:16:38;97222.22;;;11.15;100.00
79709;BME280;69203;48.964;9.118;2023-10-19T05:17:38;97220.94;;;11.19;100.00
79709;BME280;69203;48.964;9.118;2023-10-19T05:18:39;97226.50;;;11.33;100.00
79709;BME280;69203;48.964;9.118;2023-10-19T05:19:39;97234.97;;;11.27;100.00
79709;BME280;69203;48.964;9.118;2023-10-19T05:20:40;97235.88;;;11.18;100.00
79709;BME280;69203;48.964;9.118;2023-10-19T05:21:43;97234.06;;;11.19;100.00
79709;BME280;69203;48.964;9.118;2023-10-19T05:22:43;97234.91;;;11.19;100.00
79709;BME280;69203;48.964;9.118;2023-10-19T05:23:44;97230.09;;;11.15;100.00
79709;BME280;69203;48.964;9.118;2023-10-19T05:24:44;97237.59;;;11.10;100.00
79709;BME280;69203;48.964;9.118;2023-10-19T05:25:44;97231.34;;;11.11;100.00
79709;BME280;69203;48.964;9.118;2023-10-19T05:26:45;97227.50;;;11.05;100.00
79709;BME280;69203;48.964;9.118;2023-10-19T05:27:46;97230.41;;;11.02;100.00
79709;BME280;69203;48.964;9.118;2023-10-19T05:28:46;97235.34;;;11.15;100.00
79709;BME280;69203;48.964;9.118;2023-10-19T05:29:48;97235.63;;;11.12;100.00